Time;durP1;ratioP1;P1;durP2;ratioP2;P2;SDS_P1;SDS_P2;PMS_P1;PMS_P2;Temp;Humidity;BMP_temperature;BMP_pressure;BME280_temperature;BME280_humidity;BME280_pressure;Samples;Min_cycle;Max_cycle;Signal;HPM_P1;HPM_P2
2023/07/12 00:01:18;;;;;;;4.70;4.30;;;14.70;99.90;;;;;;5076722;28;20459;-63
2023/07/12 00:03:47;;;;;;;4.45;3.65;;;14.70;99.90;;;;;;5074282;28;20127;-63
2023/07/12 00:06:20;;;;;;;6.30;4.03;;;14.70;99.90;;;;;;5072986;28;20547;-62
2023/07/12 00:08:48;;;;;;;4.90;4.22;;;14.70;99.90;;;;;;5078372;28;20060;-63
2023/07/12 00:11:22;;;;;;;5.50;5.03;;;14.70;99.90;;;;;;5079480;28;20135;-63
2023/07/12 00:13:52;;;;;;;4.55;4.15;;;14.70;99.90;;;;;;5074266;28;20123;-63
2023/07/12 00:16:29;;;;;;;5.00;4.60;;;14.70;99.90;;;;;;5078015;28;20040;-63
2023/07/12 00:18:56;;;;;;;5.32;4.15;;;14.60;99.90;;;;;;5074488;28;20051;-63
2023/07/12 00:21:26;;;;;;;4.35;3.95;;;14.60;99.90;;;;;;5082109;28;20032;-63
2023/07/12 00:23:55;;;;;;;6.20;4.43;;;14.60;99.90;;;;;;5075410;28;20071;-63
2023/07/12 00:26:34;;;;;;;4.43;4.03;;;14.50;99.90;;;;;;5072814;28;20076;-63
2023/07/12 00:29:04;;;;;;;4.85;4.45;;;14.50;99.90;;;;;;5082380;28;20097;-64
2023/07/12 00:31:33;;;;;;;3.88;3.58;;;14.50;99.90;;;;;;5073065;28;20063;-63
2023/07/12 00:34:02;;;;;;;4.63;4.22;;;14.50;99.90;;;;;;5077871;28;20128;-63
2023/07/12 00:36:32;;;;;;;4.70;4.03;;;14.50;99.90;;;;;;5080754;28;20040;-63
2023/07/12 00:39:00;;;;;;;6.32;4.22;;;14.50;99.90;;;;;;5075448;28;20094;-63
2023/07/12 00:42:06;;;;;;;5.97;3.70;;;14.40;99.90;;;;;;5075141;28;20040;-64
2023/07/12 00:44:38;;;;;;;4.45;4.05;;;14.40;99.90;;;;;;5073974;28;20448;-64
2023/07/12 00:47:10;;;;;;;4.85;4.07;;;14.30;99.90;;;;;;5073110;28;20127;-62
2023/07/12 00:49:37;;;;;;;5.55;4.28;;;14.30;99.90;;;;;;5078665;28;20669;-63
2023/07/12 00:52:12;;;;;;;4.50;4.10;;;14.30;99.90;;;;;;5074486;28;20452;-62
2023/07/12 00:55:01;;;;;;;4.63;3.67;;;14.30;99.90;;;;;;5077316;28;20116;-63
2023/07/12 00:57:30;;;;;;;3.95;3.63;;;14.30;99.90;;;;;;5072264;28;20110;-63
2023/07/12 01:00:12;;;;;;;4.60;4.20;;;14.20;99.90;;;;;;5074266;28;20056;-65
2023/07/12 01:02:43;;;;;;;5.15;4.05;;;14.20;99.90;;;;;;5075200;28;20532;-63
2023/07/12 01:05:12;;;;;;;4.28;3.97;;;14.20;99.90;;;;;;5056608;28;20052;-63
2023/07/12 01:07:42;;;;;;;8.63;4.70;;;14.10;99.90;;;;;;5074932;28;20442;-64
2023/07/12 01:10:09;;;;;;;4.50;4.10;;;14.10;99.90;;;;;;5075435;28;20493;-63
2023/07/12 01:12:36;;;;;;;4.03;3.60;;;14.00;99.90;;;;;;5060558;28;20055;-63
2023/07/12 01:15:04;;;;;;;3.97;3.55;;;14.00;99.90;;;;;;5073453;28;20102;-63
2023/07/12 01:17:32;;;;;;;4.53;4.18;;;14.00;99.90;;;;;;5074340;28;20048;-62
2023/07/12 01:19:59;;;;;;;4.43;4.03;;;14.00;99.90;;;;;;5072469;28;20052;-64
2023/07/12 01:22:26;;;;;;;4.57;3.95;;;13.90;99.90;;;;;;5081744;28;20135;-64
2023/07/12 01:24:53;;;;;;;4.07;3.47;;;13.90;99.90;;;;;;5071982;28;20386;-63
2023/07/12 01:27:25;;;;;;;4.45;4.05;;;13.90;99.90;;;;;;5062511;28;20044;-62
2023/07/12 01:29:52;;;;;;;4.68;4.28;;;13.90;99.90;;;;;;5073685;28;20531;-63
2023/07/12 01:32:20;;;;;;;5.38;4.88;;;13.80;99.90;;;;;;5077493;28;20117;-62
2023/07/12 01:34:47;;;;;;;4.90;4.35;;;13.80;99.90;;;;;;5073816;28;20049;-63
2023/07/12 01:37:14;;;;;;;4.53;4.13;;;13.80;99.90;;;;;;5073589;28;20121;-63
2023/07/12 01:39:41;;;;;;;5.15;4.20;;;13.80;99.90;;;;;;5078027;28;20056;-63
2023/07/12 01:42:10;;;;;;;4.15;3.83;;;13.80;99.90;;;;;;5075267;28;20505;-64
2023/07/12 01:44:37;;;;;;;4.40;3.85;;;13.80;99.90;;;;;;5074230;28;20541;-62
2023/07/12 01:47:04;;;;;;;4.38;3.88;;;13.80;99.90;;;;;;5075550;28;20070;-63
2023/07/12 01:49:32;;;;;;;4.80;4.30;;;13.80;99.90;;;;;;5074317;28;20136;-63
2023/07/12 01:51:59;;;;;;;6.50;5.18;;;13.70;99.90;;;;;;5074092;28;20555;-64
2023/07/12 01:54:26;;;;;;;5.25;4.72;;;13.70;99.90;;;;;;5067838;28;20049;-63
2023/07/12 01:56:53;;;;;;;6.68;4.53;;;13.70;99.90;;;;;;5063290;28;20071;-63
2023/07/12 01:59:20;;;;;;;4.65;4.00;;;13.70;99.90;;;;;;5056817;28;20914;-63
2023/07/12 02:01:47;;;;;;;4.47;4.07;;;13.70;99.90;;;;;;5054169;28;20139;-63
2023/07/12 02:04:14;;;;;;;6.38;3.75;;;13.70;99.90;;;;;;5075278;28;20119;-63
2023/07/12 02:06:41;;;;;;;6.82;5.38;;;13.70;99.90;;;;;;5071920;28;20040;-63
2023/07/12 02:09:08;;;;;;;4.90;4.28;;;13.70;99.90;;;;;;5069734;28;20044;-63
2023/07/12 02:11:35;;;;;;;6.40;4.35;;;13.70;99.90;;;;;;5072581;28;20395;-63
2023/07/12 02:14:02;;;;;;;3.75;3.30;;;13.70;99.90;;;;;;5061912;28;20075;-63
2023/07/12 02:16:29;;;;;;;4.43;4.03;;;13.70;99.90;;;;;;5051013;28;20079;-64
2023/07/12 02:18:56;;;;;;;5.47;4.95;;;13.70;99.90;;;;;;5074303;28;20049;-63
2023/07/12 02:21:23;;;;;;;5.38;3.90;;;13.70;99.90;;;;;;5075192;28;20336;-62
2023/07/12 02:23:52;;;;;;;6.30;4.25;;;13.70;99.90;;;;;;5078599;28;20072;-63
2023/07/12 02:26:19;;;;;;;3.90;3.60;;;13.70;99.90;;;;;;5072626;28;20056;-63
2023/07/12 02:28:46;;;;;;;5.68;5.18;;;13.70;99.90;;;;;;5077410;28;20056;-64
2023/07/12 02:31:21;;;;;;;5.03;4.00;;;13.70;99.90;;;;;;5076076;28;20090;-64
2023/07/12 02:33:50;;;;;;;6.15;4.57;;;13.80;99.90;;;;;;5080117;28;20048;-63
2023/07/12 02:36:17;;;;;;;5.65;5.15;;;13.80;99.90;;;;;;5056171;28;20144;-62
2023/07/12 02:38:46;;;;;;;4.88;4.38;;;13.80;99.90;;;;;;5071165;28;20042;-63
2023/07/12 02:41:14;;;;;;;5.03;4.57;;;13.80;99.90;;;;;;5076807;28;20032;-63
2023/07/12 02:43:41;;;;;;;3.78;3.47;;;13.80;99.90;;;;;;5076503;28;20041;-63
2023/07/12 02:46:08;;;;;;;6.57;5.95;;;13.90;99.90;;;;;;5076464;28;20036;-62
2023/07/12 02:48:36;;;;;;;5.72;3.63;;;13.90;99.90;;;;;;5075967;28;20160;-64
2023/07/12 02:51:03;;;;;;;5.20;3.42;;;13.90;99.90;;;;;;5072269;28;20133;-65
2023/07/12 02:53:30;;;;;;;5.40;4.13;;;13.90;99.90;;;;;;5076875;28;20166;-62
2023/07/12 02:55:57;;;;;;;4.75;3.60;;;14.00;99.90;;;;;;5074424;28;20123;-64
2023/07/12 02:58:24;;;;;;;7.85;4.35;;;14.00;99.90;;;;;;5070301;28;20090;-64
2023/07/12 03:00:58;;;;;;;5.18;4.68;;;14.00;99.90;;;;;;5078384;28;20052;-63
2023/07/12 03:03:27;;;;;;;4.38;3.97;;;14.10;99.90;;;;;;5073864;28;20041;-63
2023/07/12 03:06:10;;;;;;;5.88;3.67;;;14.10;99.90;;;;;;5071441;28;20048;-62
2023/07/12 03:08:37;;;;;;;5.28;4.78;;;14.20;99.90;;;;;;5077633;28;20056;-64
2023/07/12 03:11:07;;;;;;;4.25;3.50;;;14.20;99.90;;;;;;5075910;28;20056;-63
2023/07/12 03:13:35;;;;;;;4.45;3.55;;;14.20;99.90;;;;;;5082083;28;20555;-63
2023/07/12 03:16:06;;;;;;;5.28;4.72;;;14.20;99.90;;;;;;5075993;28;20102;-62
2023/07/12 03:18:33;;;;;;;4.22;3.58;;;14.30;99.90;;;;;;5079194;28;20036;-63
2023/07/12 03:21:02;;;;;;;5.97;5.38;;;14.30;99.90;;;;;;5075078;28;20135;-63
2023/07/12 03:23:30;;;;;;;5.03;3.80;;;14.40;99.90;;;;;;5080117;28;20087;-63
2023/07/12 03:25:57;;;;;;;6.07;4.57;;;14.40;99.90;;;;;;5075401;28;20675;-63
2023/07/12 03:28:25;;;;;;;8.60;5.22;;;14.40;99.90;;;;;;5080551;28;20075;-62
2023/07/12 03:30:58;;;;;;;4.32;3.92;;;14.50;99.90;;;;;;5079937;28;20485;-65
2023/07/12 03:33:25;;;;;;;5.97;5.38;;;14.60;99.90;;;;;;5080795;28;20473;-63
2023/07/12 03:35:52;;;;;;;3.92;3.63;;;14.60;99.90;;;;;;5077426;28;20509;-64
2023/07/12 03:38:19;;;;;;;4.50;3.63;;;14.60;99.90;;;;;;5080489;28;20052;-63
2023/07/12 03:40:47;;;;;;;6.00;3.83;;;14.60;99.90;;;;;;5077527;28;20043;-63
2023/07/12 03:43:14;;;;;;;5.55;3.53;;;14.70;99.90;;;;;;5076044;28;20036;-64
2023/07/12 03:45:43;;;;;;;6.28;4.05;;;14.70;99.90;;;;;;5075203;28;20137;-62
2023/07/12 03:48:10;;;;;;;9.48;3.88;;;14.70;99.90;;;;;;5081371;28;20097;-63
2023/07/12 03:50:40;;;;;;;3.45;3.15;;;14.80;99.90;;;;;;5056783;28;20873;-63
2023/07/12 03:53:08;;;;;;;4.28;3.70;;;14.90;99.90;;;;;;5081997;28;20032;-63
2023/07/12 03:55:46;;;;;;;6.30;4.30;;;14.90;99.90;;;;;;5071806;28;20120;-62
2023/07/12 03:58:16;;;;;;;3.72;3.40;;;15.00;99.90;;;;;;5081296;28;20039;-63
2023/07/12 04:00:44;;;;;;;3.60;3.30;;;15.00;99.90;;;;;;5075609;28;20130;-65
2023/07/12 04:03:12;;;;;;;4.75;3.97;;;15.10;99.90;;;;;;5079963;28;20667;-65
2023/07/12 04:05:40;;;;;;;6.65;4.75;;;15.20;99.90;;;;;;5068726;28;20417;-62
2023/07/12 04:08:10;;;;;;;4.00;3.60;;;15.20;99.90;;;;;;5075923;28;20117;-63
2023/07/12 04:10:37;;;;;;;3.97;3.58;;;15.30;99.90;;;;;;5075144;28;20492;-63
2023/07/12 04:13:05;;;;;;;4.30;3.63;;;15.30;99.90;;;;;;5077041;28;20048;-64
2023/07/12 04:15:33;;;;;;;4.50;4.10;;;15.40;99.90;;;;;;5074535;28;20098;-63
2023/07/12 04:18:00;;;;;;;4.07;3.50;;;15.50;99.90;;;;;;5057477;28;20398;-64
2023/07/12 04:20:27;;;;;;;5.20;3.90;;;15.50;99.90;;;;;;5073264;28;20113;-62
2023/07/12 04:22:54;;;;;;;3.60;3.30;;;15.60;99.90;;;;;;5079150;28;20131;-63
2023/07/12 04:25:20;;;;;;;4.85;3.45;;;15.60;99.90;;;;;;5079339;28;20093;-63
2023/07/12 04:27:47;;;;;;;5.88;4.28;;;15.70;99.90;;;;;;5081121;28;20075;-63
2023/07/12 04:30:16;;;;;;;5.55;3.55;;;15.80;99.90;;;;;;5076041;28;20139;-63
2023/07/12 04:32:47;;;;;;;4.78;3.05;;;15.80;99.90;;;;;;5073881;28;20263;-63
2023/07/12 04:35:14;;;;;;;4.78;3.63;;;15.90;99.90;;;;;;5079498;28;20041;-62
2023/07/12 04:37:46;;;;;;;3.38;3.17;;;16.10;99.90;;;;;;5075924;28;20909;-63
2023/07/12 04:40:13;;;;;;;3.72;3.40;;;16.10;99.90;;;;;;5078952;28;20055;-62
2023/07/12 04:42:40;;;;;;;4.38;3.63;;;16.10;99.90;;;;;;5081413;28;20044;-64
2023/07/12 04:45:12;;;;;;;5.32;3.50;;;16.20;99.90;;;;;;5080244;28;20051;-62
2023/07/12 04:47:40;;;;;;;3.13;2.92;;;16.20;99.90;;;;;;5076271;28;20121;-63
2023/07/12 04:50:09;;;;;;;3.90;3.58;;;16.30;99.90;;;;;;5077396;28;20515;-63
2023/07/12 04:52:36;;;;;;;4.07;3.55;;;16.30;99.90;;;;;;5077855;28;20158;-64
2023/07/12 04:55:05;;;;;;;2.80;2.42;;;16.40;99.90;;;;;;5074288;28;20093;-64
2023/07/12 04:57:32;;;;;;;5.38;3.05;;;16.50;99.90;;;;;;5076104;28;20059;-64
2023/07/12 04:59:59;;;;;;;4.45;3.45;;;16.50;99.90;;;;;;5073903;28;20044;-62
2023/07/12 05:02:26;;;;;;;4.00;3.58;;;16.60;99.90;;;;;;5077700;28;20044;-63
2023/07/12 05:04:53;;;;;;;3.17;2.88;;;16.70;99.90;;;;;;5077284;28;20040;-65
2023/07/12 05:07:20;;;;;;;3.25;3.00;;;16.70;99.90;;;;;;5075748;28;20043;-63
2023/07/12 05:09:47;;;;;;;4.28;3.20;;;16.70;99.90;;;;;;5072699;28;20118;-63
2023/07/12 05:12:13;;;;;;;3.33;3.03;;;16.80;99.90;;;;;;5076345;28;20105;-64
2023/07/12 05:14:40;;;;;;;4.32;2.97;;;16.90;99.90;;;;;;5077715;28;20572;-65
2023/07/12 05:17:07;;;;;;;3.15;2.85;;;16.90;99.90;;;;;;5073726;28;20496;-64
2023/07/12 05:19:34;;;;;;;4.88;2.75;;;17.00;99.90;;;;;;5076533;28;20055;-63
2023/07/12 05:22:01;;;;;;;3.22;2.90;;;17.00;99.90;;;;;;5073561;28;20048;-64
2023/07/12 05:24:29;;;;;;;4.50;2.90;;;17.20;99.90;;;;;;5075880;28;20139;-63
2023/07/12 05:26:58;;;;;;;3.13;2.67;;;17.20;99.90;;;;;;5080957;28;20072;-63
2023/07/12 05:29:25;;;;;;;3.50;3.20;;;17.30;99.90;;;;;;5074927;28;20127;-65
2023/07/12 05:31:52;;;;;;;6.05;3.33;;;17.40;99.90;;;;;;5074846;28;20068;-64
2023/07/12 05:34:19;;;;;;;3.33;3.03;;;17.40;99.90;;;;;;5075855;28;20043;-63
2023/07/12 05:36:45;;;;;;;5.93;2.53;;;17.60;99.90;;;;;;5071641;28;20079;-64
2023/07/12 05:39:12;;;;;;;3.13;2.83;;;17.70;99.90;;;;;;5075881;28;20044;-63
2023/07/12 05:41:39;;;;;;;3.10;2.90;;;17.80;99.90;;;;;;5074917;28;20044;-62
2023/07/12 05:44:06;;;;;;;10.05;3.25;;;17.80;99.90;;;;;;5081101;28;20127;-64
2023/07/12 05:46:33;;;;;;;7.68;3.63;;;17.90;99.90;;;;;;5069646;28;20426;-63
2023/07/12 05:49:00;;;;;;;2.80;2.45;;;18.00;99.90;;;;;;5078195;28;20032;-63
2023/07/12 05:51:27;;;;;;;4.35;3.25;;;18.10;99.90;;;;;;5076402;28;20039;-64
2023/07/12 05:53:54;;;;;;;3.17;2.47;;;18.20;99.90;;;;;;5073803;28;20028;-63
2023/07/12 05:56:21;;;;;;;3.95;2.30;;;18.30;99.90;;;;;;5072780;28;20044;-63
2023/07/12 05:58:48;;;;;;;2.42;2.33;;;18.40;99.90;;;;;;5078562;28;20550;-63
2023/07/12 06:01:17;;;;;;;2.90;2.50;;;18.40;99.90;;;;;;5071797;28;20128;-62
2023/07/12 06:03:43;;;;;;;2.42;2.22;;;18.50;99.90;;;;;;5072445;28;20452;-62
2023/07/12 06:06:10;;;;;;;2.10;1.92;;;18.50;99.90;;;;;;5071853;28;20072;-68
2023/07/12 06:08:37;;;;;;;3.53;2.43;;;18.60;99.90;;;;;;5036629;28;1073161;-63
2023/07/12 06:11:05;;;;;;;2.90;2.20;;;18.70;99.90;;;;;;5069944;28;20296;-63
2023/07/12 06:13:32;;;;;;;2.90;2.38;;;18.80;99.90;;;;;;5073699;28;20146;-65
2023/07/12 06:15:58;;;;;;;2.78;2.47;;;18.80;99.90;;;;;;5070848;28;20064;-64
2023/07/12 06:18:25;;;;;;;2.60;2.40;;;18.90;99.90;;;;;;5072601;28;20047;-63
2023/07/12 06:20:58;;;;;;;2.40;2.15;;;18.90;99.90;;;;;;5071661;28;20048;-63
2023/07/12 06:23:26;;;;;;;3.47;2.60;;;19.00;99.90;;;;;;5078665;28;20447;-63
2023/07/12 06:25:57;;;;;;;3.60;2.15;;;19.10;99.90;;;;;;5077360;28;20134;-63
2023/07/12 06:28:25;;;;;;;2.22;2.13;;;19.20;99.90;;;;;;5075345;28;20048;-64
2023/07/12 06:30:52;;;;;;;3.63;2.33;;;19.30;99.90;;;;;;5077492;28;20484;-64
2023/07/12 06:33:19;;;;;;;2.33;2.03;;;19.40;99.90;;;;;;5074088;28;20704;-64
2023/07/12 06:35:46;;;;;;;3.28;2.17;;;19.50;99.90;;;;;;5072363;28;20713;-63
2023/07/12 06:38:13;;;;;;;2.30;2.10;;;19.60;99.90;;;;;;5077690;28;20041;-67
2023/07/12 06:40:41;;;;;;;8.38;2.63;;;19.70;99.90;;;;;;5081227;28;20628;-62
2023/07/12 06:43:08;;;;;;;6.20;2.47;;;19.80;99.90;;;;;;5078985;28;20041;-63
2023/07/12 06:45:37;;;;;;;5.03;2.30;;;19.90;99.90;;;;;;5074141;28;20562;-63
2023/07/12 06:48:04;;;;;;;1.48;1.33;;;20.10;99.90;;;;;;5080800;28;20529;-63
2023/07/12 06:50:31;;;;;;;3.00;1.92;;;20.10;99.90;;;;;;5075743;28;20090;-63
2023/07/12 06:52:58;;;;;;;2.10;1.83;;;20.10;99.90;;;;;;5076793;28;20045;-63
2023/07/12 06:55:25;;;;;;;2.72;1.65;;;20.10;99.90;;;;;;5080444;28;20649;-64
2023/07/12 06:57:51;;;;;;;4.38;2.13;;;20.20;99.90;;;;;;5077502;28;20268;-63
2023/07/12 07:00:18;;;;;;;6.18;1.58;;;20.30;99.90;;;;;;5081310;28;20394;-64
2023/07/12 07:02:45;;;;;;;1.88;1.70;;;20.40;99.90;;;;;;5079387;28;20131;-65
2023/07/12 07:05:12;;;;;;;2.88;1.75;;;20.40;99.90;;;;;;5079488;28;20385;-64
2023/07/12 07:07:39;;;;;;;3.42;1.67;;;20.50;99.90;;;;;;5075797;28;20040;-63
2023/07/12 07:10:06;;;;;;;2.17;1.55;;;20.50;99.90;;;;;;5079013;28;20072;-63
2023/07/12 07:12:33;;;;;;;2.30;2.10;;;20.60;99.90;;;;;;5080008;28;20040;-63
2023/07/12 07:15:00;;;;;;;1.83;1.63;;;20.70;99.90;;;;;;5075498;28;20123;-63
2023/07/12 07:17:27;;;;;;;2.63;1.38;;;20.80;99.90;;;;;;5080188;28;20055;-65
2023/07/12 07:19:54;;;;;;;4.28;2.10;;;20.80;99.90;;;;;;5080263;28;20093;-62
2023/07/12 07:22:21;;;;;;;2.03;1.70;;;20.90;99.90;;;;;;5080296;28;20089;-64
2023/07/12 07:24:48;;;;;;;1.60;1.50;;;20.90;99.90;;;;;;5080656;28;20467;-63
2023/07/12 07:27:15;;;;;;;2.20;2.00;;;21.00;99.90;;;;;;5079401;28;20607;-65
2023/07/12 07:29:41;;;;;;;2.55;2.10;;;21.00;99.90;;;;;;5080035;28;20106;-63
2023/07/12 07:32:08;;;;;;;2.95;1.80;;;21.10;99.90;;;;;;5073659;28;20048;-65
2023/07/12 07:34:35;;;;;;;5.03;1.90;;;21.20;99.90;;;;;;5078347;28;20041;-64
2023/07/12 07:37:03;;;;;;;4.00;1.42;;;21.30;99.90;;;;;;5075779;28;20056;-62
2023/07/12 07:39:30;;;;;;;2.65;2.45;;;21.40;99.90;;;;;;5079768;28;20413;-63
2023/07/12 07:41:58;;;;;;;2.30;2.10;;;21.50;99.90;;;;;;5075910;28;20082;-64
2023/07/12 07:44:24;;;;;;;3.55;1.85;;;21.60;99.90;;;;;;5075711;28;20492;-64
2023/07/12 07:46:51;;;;;;;4.68;1.77;;;21.70;99.80;;;;;;5073948;28;20033;-63
2023/07/12 07:49:18;;;;;;;4.72;2.10;;;21.70;99.70;;;;;;5073979;28;20144;-64
2023/07/12 07:51:45;;;;;;;3.30;2.20;;;21.70;99.70;;;;;;5077596;28;20041;-63
2023/07/12 07:54:12;;;;;;;2.15;1.95;;;21.70;98.80;;;;;;5077231;28;20078;-65
2023/07/12 07:56:41;;;;;;;3.58;2.60;;;21.80;98.60;;;;;;5072471;28;20062;-63
2023/07/12 07:59:08;;;;;;;5.97;2.58;;;21.80;98.70;;;;;;5078035;28;20086;-63
2023/07/12 08:01:35;;;;;;;4.88;1.58;;;21.90;98.90;;;;;;5076425;28;20059;-63
2023/07/12 08:04:04;;;;;;;2.45;1.38;;;21.90;98.20;;;;;;5079456;28;20558;-63
2023/07/12 08:06:33;;;;;;;2.17;1.75;;;22.00;98.50;;;;;;5073572;28;20045;-64
2023/07/12 08:09:00;;;;;;;3.33;1.83;;;22.00;98.10;;;;;;5075786;28;20058;-62
2023/07/12 08:11:27;;;;;;;2.83;1.65;;;22.10;98.30;;;;;;5075463;28;20048;-63
2023/07/12 08:13:54;;;;;;;1.92;1.77;;;22.20;98.00;;;;;;5083508;28;20093;-63
2023/07/12 08:16:25;;;;;;;3.42;1.52;;;22.30;98.00;;;;;;5073787;28;20125;-64
2023/07/12 08:18:52;;;;;;;2.95;1.90;;;22.40;97.40;;;;;;5076429;28;20076;-63
2023/07/12 08:21:19;;;;;;;3.35;1.60;;;22.50;97.60;;;;;;5071649;28;20043;-62
2023/07/12 08:23:46;;;;;;;2.10;2.00;;;22.60;97.60;;;;;;5077697;28;20051;-63
2023/07/12 08:26:14;;;;;;;2.75;2.03;;;22.70;96.80;;;;;;5079072;28;20071;-64
2023/07/12 08:28:41;;;;;;;3.92;2.63;;;22.80;96.50;;;;;;5076506;28;20044;-63
2023/07/12 08:31:08;;;;;;;2.50;1.92;;;22.80;96.80;;;;;;5076594;28;20094;-64
2023/07/12 08:33:35;;;;;;;5.55;1.98;;;22.80;96.60;;;;;;5077493;28;20107;-64
2023/07/12 08:36:02;;;;;;;3.30;1.60;;;22.80;96.30;;;;;;5076158;28;20147;-63
2023/07/12 08:38:31;;;;;;;1.75;1.65;;;22.90;96.50;;;;;;5076496;28;20542;-62
2023/07/12 08:41:00;;;;;;;2.20;1.65;;;23.10;96.70;;;;;;5079812;28;20081;-65
2023/07/12 08:43:32;;;;;;;6.13;4.22;;;23.20;96.40;;;;;;5077054;28;20076;-63
2023/07/12 08:46:08;;;;;;;1.95;1.48;;;23.30;96.50;;;;;;5077092;28;20525;-63
2023/07/12 08:48:36;;;;;;;2.13;2.00;;;23.50;96.50;;;;;;5081843;28;20127;-64
2023/07/12 08:51:13;;;;;;;1.52;1.42;;;23.50;96.00;;;;;;5082682;28;20127;-63
2023/07/12 08:53:41;;;;;;;4.38;2.25;;;23.50;95.00;;;;;;5072036;28;20083;-63
2023/07/12 08:56:15;;;;;;;2.08;1.88;;;23.60;95.30;;;;;;5079730;28;20044;-62
2023/07/12 08:58:45;;;;;;;2.40;1.80;;;23.60;95.70;;;;;;5074568;28;20048;-64
2023/07/12 09:01:27;;;;;;;;;;;23.70;95.00;;;;;;5080732;28;20068;-64
2023/07/12 09:03:54;;;;;;;2.53;1.25;;;23.80;94.80;;;;;;5075721;28;19924;-63
2023/07/12 09:06:21;;;;;;;3.40;3.10;;;23.70;94.90;;;;;;5074143;28;20143;-65
2023/07/12 09:08:53;;;;;;;2.35;2.05;;;23.60;94.90;;;;;;5075566;28;20450;-63
2023/07/12 09:11:27;;;;;;;1.75;1.65;;;23.50;95.00;;;;;;5078778;28;20097;-64
2023/07/12 09:13:57;;;;;;;2.13;1.92;;;23.50;94.90;;;;;;5078576;28;20110;-63
2023/07/12 09:16:31;;;;;;;2.85;2.55;;;23.50;95.20;;;;;;5077430;28;20045;-64
2023/07/12 09:19:11;;;;;;;1.75;1.52;;;23.50;95.40;;;;;;5070372;28;20044;-64
2023/07/12 09:21:38;;;;;;;3.00;2.10;;;23.80;95.80;;;;;;5075904;28;20056;-63
2023/07/12 09:24:13;;;;;;;6.05;2.95;;;23.90;95.90;;;;;;5074111;28;20135;-63
2023/07/12 09:26:40;;;;;;;2.65;1.27;;;24.00;95.40;;;;;;5074732;28;20045;-63
2023/07/12 09:29:13;;;;;;;7.40;2.42;;;24.10;95.10;;;;;;5076353;28;20055;-65
2023/07/12 09:31:43;;;;;;;1.92;1.73;;;24.30;95.90;;;;;;5077198;28;20040;-63
2023/07/12 09:34:37;;;;;;;1.63;1.52;;;24.40;95.40;;;;;;5075782;28;20048;-63
2023/07/12 09:37:04;;;;;;;5.40;2.00;;;24.40;94.90;;;;;;5075572;28;20106;-63
2023/07/12 09:39:31;;;;;;;2.35;1.83;;;24.50;95.40;;;;;;5074536;28;20109;-64
2023/07/12 09:42:01;;;;;;;3.40;2.13;;;24.40;95.10;;;;;;5075999;28;20125;-63
2023/07/12 09:44:28;;;;;;;;;;;24.30;94.50;;;;;;5075690;28;20454;-63
2023/07/12 09:47:14;;;;;;;2.63;1.60;;;24.30;94.50;;;;;;5074008;28;19920;-63
2023/07/12 09:49:51;;;;;;;2.53;2.00;;;24.40;95.20;;;;;;5077171;28;20130;-63
2023/07/12 09:52:27;;;;;;;3.28;2.15;;;24.40;94.40;;;;;;5073215;28;20079;-63
2023/07/12 09:55:16;;;;;;;3.15;1.65;;;24.40;93.90;;;;;;5079367;28;20398;-64
2023/07/12 09:57:53;;;;;;;2.00;1.80;;;24.40;94.60;;;;;;5076752;28;20036;-64
2023/07/12 10:00:35;;;;;;;3.28;1.95;;;24.40;94.50;;;;;;5076925;28;20046;-65
2023/07/12 10:03:26;;;;;;;2.70;1.90;;;24.50;94.80;;;;;;5074282;28;20068;-64
2023/07/12 10:06:04;;;;;;;5.85;1.90;;;24.40;94.70;;;;;;5075407;28;20818;-64
2023/07/12 10:08:57;;;;;;;3.35;2.10;;;24.40;94.80;;;;;;5075669;28;20051;-63
2023/07/12 10:11:31;;;;;;;6.70;2.40;;;24.40;94.80;;;;;;5078167;28;20071;-63
2023/07/12 10:14:06;;;;;;;3.28;1.98;;;24.30;94.70;;;;;;5078319;28;20048;-63
2023/07/12 10:16:39;;;;;;;4.95;2.42;;;24.40;94.90;;;;;;5072654;28;20128;-64
2023/07/12 10:19:18;;;;;;;5.82;2.10;;;24.40;94.70;;;;;;5076719;28;20104;-63
2023/07/12 10:21:46;;;;;;;1.63;1.52;;;24.50;94.70;;;;;;5078537;28;20043;-64
2023/07/12 10:24:15;;;;;;;3.08;1.85;;;24.40;94.20;;;;;;5076552;28;20420;-63
2023/07/12 10:26:44;;;;;;;2.53;1.98;;;24.40;94.20;;;;;;5079018;28;20050;-63
2023/07/12 10:29:22;;;;;;;7.57;2.33;;;24.40;94.00;;;;;;5077729;28;20074;-68
2023/07/12 10:31:56;;;;;;;1.95;1.70;;;24.40;93.80;;;;;;5078355;28;20040;-63
2023/07/12 10:34:39;;;;;;;2.60;1.80;;;24.20;94.10;;;;;;5081857;28;20048;-63
2023/07/12 10:37:33;;;;;;;4.53;1.92;;;24.10;94.10;;;;;;5080215;28;20123;-63
2023/07/12 10:40:00;;;;;;;3.30;1.83;;;23.90;94.10;;;;;;5043993;28;20056;-63
2023/07/12 10:42:30;;;;;;;7.03;2.72;;;23.90;94.00;;;;;;5077734;28;20645;-63
2023/07/12 10:45:00;;;;;;;8.80;2.55;;;23.90;94.40;;;;;;5079455;28;20108;-63
2023/07/12 10:47:35;;;;;;;2.20;1.60;;;23.90;94.40;;;;;;5076684;28;20192;-63
2023/07/12 10:50:07;;;;;;;2.42;1.92;;;24.00;94.30;;;;;;5074020;28;20047;-64
2023/07/12 10:53:02;;;;;;;5.32;2.00;;;24.20;94.00;;;;;;5076630;28;20055;-63
2023/07/12 10:55:49;;;;;;;5.30;3.03;;;24.20;93.70;;;;;;5074293;28;20410;-63
2023/07/12 10:58:19;;;;;;;5.90;3.58;;;24.40;93.60;;;;;;5079465;28;20045;-64
2023/07/12 11:00:58;;;;;;;2.92;1.75;;;24.50;93.10;;;;;;5080972;28;20044;-63
2023/07/12 11:03:47;;;;;;;3.33;1.70;;;24.50;91.70;;;;;;5077529;28;20101;-63
2023/07/12 11:06:26;;;;;;;1.83;1.40;;;24.40;92.50;;;;;;5074392;28;20041;-66
2023/07/12 11:09:09;;;;;;;3.30;1.70;;;24.40;92.50;;;;;;5079739;28;20467;-65
2023/07/12 11:11:44;;;;;;;4.07;1.50;;;24.30;92.90;;;;;;5079619;28;20048;-69
2023/07/12 11:14:17;;;;;;;1.73;1.27;;;24.20;93.20;;;;;;5076752;28;20048;-69
2023/07/12 11:16:48;;;;;;;3.67;1.60;;;24.00;93.00;;;;;;5080555;28;20052;-71
2023/07/12 11:19:42;;;;;;;2.75;1.75;;;23.80;94.00;;;;;;5075618;28;20639;-67
2023/07/12 11:22:12;;;;;;;5.00;2.63;;;23.90;94.40;;;;;;5060070;28;20060;-68
2023/07/12 11:24:49;;;;;;;4.25;1.88;;;23.90;95.10;;;;;;5075520;28;20044;-63
2023/07/12 11:27:44;;;;;;;2.10;1.85;;;23.90;96.00;;;;;;5075710;28;20351;-66
2023/07/12 11:30:20;;;;;;;2.58;2.25;;;23.90;96.40;;;;;;5075970;28;20136;-69
2023/07/12 11:32:48;;;;;;;3.97;3.58;;;23.90;96.90;;;;;;5071806;28;20048;-66
2023/07/12 11:35:20;;;;;;;2.38;2.17;;;23.90;97.00;;;;;;5073799;28;20064;-67
2023/07/12 11:37:52;;;;;;;3.13;2.63;;;23.80;97.80;;;;;;5076898;28;20480;-66
2023/07/12 11:40:25;;;;;;;3.35;2.97;;;23.80;98.20;;;;;;5076138;28;20505;-66
2023/07/12 11:42:52;;;;;;;3.50;2.53;;;23.80;98.70;;;;;;5077743;28;20089;-66
2023/07/12 11:45:22;;;;;;;3.10;2.80;;;23.70;99.20;;;;;;5073957;28;20049;-67
2023/07/12 11:47:52;;;;;;;2.58;2.10;;;23.70;99.60;;;;;;5074379;28;20037;-66
2023/07/12 11:50:23;;;;;;;4.15;2.35;;;23.80;99.70;;;;;;5077077;28;20047;-66
2023/07/12 11:52:52;;;;;;;4.32;2.85;;;23.90;99.70;;;;;;5080280;28;20043;-66
2023/07/12 11:55:26;;;;;;;3.17;2.17;;;23.80;99.40;;;;;;5078818;28;20505;-67
2023/07/12 11:57:54;;;;;;;4.70;2.90;;;23.90;99.90;;;;;;5076476;28;20075;-67
2023/07/12 12:00:29;;;;;;;5.85;2.45;;;23.80;99.70;;;;;;5078199;28;20071;-66
2023/07/12 12:02:58;;;;;;;3.08;2.78;;;23.80;99.70;;;;;;5083134;28;20052;-66
2023/07/12 12:05:32;;;;;;;3.65;2.28;;;23.80;99.60;;;;;;5082325;28;20052;-66
2023/07/12 12:08:00;;;;;;;4.40;3.20;;;23.80;99.50;;;;;;5077043;28;20060;-66
2023/07/12 12:10:32;;;;;;;6.15;2.50;;;23.80;99.50;;;;;;5083211;28;20032;-66
2023/07/12 12:12:59;;;;;;;6.60;3.08;;;23.80;99.40;;;;;;5078722;28;20055;-66
2023/07/12 12:15:30;;;;;;;4.93;2.38;;;23.60;98.90;;;;;;5075773;28;20045;-66
2023/07/12 12:18:04;;;;;;;3.70;2.22;;;23.60;99.20;;;;;;5077623;28;20504;-66
2023/07/12 12:20:33;;;;;;;3.83;2.60;;;23.50;99.40;;;;;;5073917;28;20479;-66
2023/07/12 12:23:21;;;;;;;2.90;1.87;;;23.60;99.30;;;;;;5076248;28;20124;-66
2023/07/12 12:25:50;;;;;;;5.65;2.90;;;23.50;99.30;;;;;;5065129;28;20296;-66
2023/07/12 12:28:32;;;;;;;3.13;2.53;;;23.40;99.30;;;;;;5074629;28;20048;-67
2023/07/12 12:31:17;;;;;;;2.47;2.10;;;23.50;99.30;;;;;;5076710;28;20044;-66
2023/07/12 12:33:49;;;;;;;2.47;2.25;;;23.40;99.30;;;;;;5077534;28;20039;-66
2023/07/12 12:36:29;;;;;;;2.80;2.60;;;23.30;99.60;;;;;;5071658;28;20060;-67
2023/07/12 12:39:18;;;;;;;2.23;2.03;;;23.20;99.70;;;;;;5072083;28;20040;-66
2023/07/12 12:41:54;;;;;;;3.75;2.90;;;23.20;99.50;;;;;;5077581;28;20127;-66
2023/07/12 12:44:26;;;;;;;2.20;1.98;;;23.30;99.50;;;;;;5071207;28;20531;-66
2023/07/12 12:46:55;;;;;;;3.58;2.08;;;23.40;99.60;;;;;;5077441;28;20052;-66
2023/07/12 12:49:34;;;;;;;5.78;2.30;;;23.40;99.20;;;;;;5077386;28;20746;-66
2023/07/12 12:52:25;;;;;;;3.05;2.45;;;23.50;99.40;;;;;;5075147;28;20090;-66
2023/07/12 12:55:07;;;;;;;3.47;2.17;;;23.50;99.30;;;;;;5072306;28;20052;-66
2023/07/12 12:57:55;;;;;;;2.85;2.30;;;23.50;99.40;;;;;;5081477;28;20068;-66
2023/07/12 13:00:27;;;;;;;5.15;2.72;;;23.50;99.50;;;;;;5078096;28;20074;-67
2023/07/12 13:02:57;;;;;;;3.15;2.08;;;23.50;99.20;;;;;;5076916;28;20044;-66
2023/07/12 13:05:28;;;;;;;3.85;2.20;;;23.60;99.40;;;;;;5077726;28;20157;-66